[every second Sunday of the month| 2000lcl-2200lcl] Minors on Stage: EDDS-EDDW-EPKK

Zu Eventkalender hinzugefügt: 9 dates

RG Frankfurt - Event
RG Frankfurt - Mentor
YqMad0b.png

Minors on Stage are back!
Stuttgart, Bremen and Kraków
- three beautiful cities in the middle of Europe that have many attractions to offer. Stuttgart, as the the car city with Mercedes and Porsche. Bremen as the beautiful hanseatic city in the north of Germany and Kraków with many cultural assets
in the heart of Poland.

Therefore VATSIM Germany and Polish VACC are happy to invite you to our monthly event "Minors on Stage" between Stuttgart, Bremen and Kraków, which takes place on every second Sunday of the month from 18z - 20z (summer time). You can expect full-ATC coverage between these cities.
We are happy to welcome you at any of three airports!

Routes:
EDDS - EDDW
: OKIBA N851 RIMKI Z99 LOHRE DCT MASEK DCT ELNAT P605 DLE Z88 VERED (FL260+)
EDDW - EDDS: ERLAD Y804 PIROT N850 KRH T128 BADSO (FL230-)

EDDS - EPKK: ABTAL L173 RIXED Y161 RIDAR UZ98 MIQ L605 BIBAG Q104 AKIMA DCT MASUR DCT NAVTI DCT PADKA (FL260+)
EPKK - EDDS: BABKO L856 VADEX DCT KOPAT DCT MAREG DCT TITIG L173 DODIL T127 TEKSI (FL260+)

EDDW - EPKK: NIE Z88 DLE L986 BOLBO DCT LASIS T714 GODLO DCT MAPIK (FL330+)
EPKK - EDDW: POBOK M985 KOTEK L981 ADVAB L980 SUBIX DCT VIBIS L619 BKD Z870 EKROV (FL300+)
 
RG Frankfurt - Event
RG Frankfurt - Mentor
Heute Abend von 20-22lcl startet unsere Ausgabe ,,Minors on Stage"!
Euch erwarten drei vollbesetzte Flughäfen, egal ob Stuttgart, Bremen oder Kraków.
Wir freuen uns auf euch!
 
RG Bremen - Event
...und das apriltypische Wetter hält heute auch einige Besonderheiten für euch bereit:

Krakau:
TAF: EPKK 101130Z 1012/1112 27012KT 9999 BKN040 TEMPO 1012/1112 SHRA BKN030CB PROB30 TEMPO 1012/1017 VRB15G30KT 4000 TSRAGR BKN014CB PROB40 TEMPO 1101/1108 4000 SHRASN BKN014CB
Stuttgart:
TAF: EDDS 101404Z 1014/1112 28007KT 9999 BKN040 TEMPO 1014/1017 VRB03KT PROB30 TEMPO 1014/1015 4000 SHRAGS BKN030TCU BECMG 1017/1019 05005KT
Bremen:
TAF: EDDW 101100Z 1012/1112 29014KT 9999 SCT030 TEMPO 1012/1017 30020G35KT 4000 SHGSRA BKN012CB BECMG 1017/1019 28006KT BECMG 1020/1022 22003KT PROB40 TEMPO 1100/1107 2500 BCFG PROB30 TEMPO 1100/1106 0600 FZFG
 
RG Frankfurt - Event
RG Frankfurt - Mentor
Heute Abend ist es wieder soweit!
Stuttgart, Bremen und Kraków sind bereit und öffnen für euch die Toren von 18z bis 20z.
Steigt in eure Flieger ein und kommt vorbei!

Kraków:

TAF: EPKK 081130Z 0812/0912 06010KT 9999 SCT050 TEMPO 0812/0818 -SHRA SCT030CB BECMG 0821/0823 VRB02KT
Stuttgart:
TAF: EDDS 081100Z 0812/0912 03009KT CAVOK BECMG 0818/0821 36004KT
Bremen:
TAF: EDDW 081100Z 0812/0912 34009KT CAVOK BECMG 0819/0821 02004KT BECMG 0905/0907 12006KT
 
RG Frankfurt - Event
RG Frankfurt - Mentor
Heute Abend ist es wieder soweit!
Stuttgart, Bremen und Kraków sind bereit und öffnen für euch die Toren von 18z bis 20z.
Steigt in eure Flieger ein und kommt vorbei!


Kraków:
TAF: EPKK 121430Z 1215/1315 VRB02KT 9999 SCT060 BECMG 1307/1310 26012KT TEMPO 1308/1315 30015G30KT 4000 SHRA BKN040CB PROB40 TEMPO 1309/1315 VRB20G40KT 2000 TSRA BKN013 BKN025CB
Stuttgart:
TAF: EDDS 121100Z 1212/1312 VRB03KT CAVOK BECMG 1213/1215 31007KT TEMPO 1220/1302 SHRA BKN060CB PROB30 TEMPO 1221/1224 TSRA
Bremen:
TAF: EDDW 121100Z 1212/1312 28010KT 9999 SCT040 PROB30 TEMPO 1212/1216 30015G25KT SHRA BKN030TCU BECMG 1218/1220 28004KT BECMG 1304/1306 27010KT TEMPO 1305/1312 29015G25KT SHRA BKN014CB
 
Oben